Time;durP1;ratioP1;P1;durP2;ratioP2;P2;SDS_P1;SDS_P2;PMS_P1;PMS_P2;Temp;Humidity;BMP_temperature;BMP_pressure;BME280_temperature;BME280_humidity;BME280_pressure;Samples;Min_cycle;Max_cycle;Signal;HPM_P1;HPM_P2
2021/08/24 00:00:56;;;;;;;30.73;13.45;;;40.20;28.80;;;;;;5075164;28;20080;-58
2021/08/24 00:03:23;;;;;;;28.42;13.15;;;40.10;29.30;;;;;;5073129;28;20081;-60
2021/08/24 00:05:49;;;;;;;19.25;11.73;;;40.00;28.80;;;;;;5072689;28;20076;-60
2021/08/24 00:08:16;;;;;;;21.83;11.82;;;40.00;28.90;;;;;;5070850;28;21019;-60
2021/08/24 00:10:47;;;;;;;26.73;11.60;;;40.00;28.90;;;;;;5075757;28;20286;-57
2021/08/24 00:13:15;;;;;;;20.65;11.45;;;39.90;28.80;;;;;;5074504;28;20096;-60
2021/08/24 00:15:42;;;;;;;22.30;11.63;;;39.80;28.20;;;;;;5076070;28;20088;-58
2021/08/24 00:18:10;;;;;;;35.97;12.90;;;39.70;28.10;;;;;;5075700;28;20653;-61
2021/08/24 00:20:38;;;;;;;24.92;12.10;;;39.70;28.10;;;;;;5072891;28;20188;-61
2021/08/24 00:23:08;;;;;;;20.13;12.07;;;39.70;28.10;;;;;;5073623;28;20259;-59
2021/08/24 00:25:35;;;;;;;30.45;13.07;;;39.60;27.40;;;;;;5075631;28;20088;-60
2021/08/24 00:28:02;;;;;;;29.40;13.95;;;39.60;27.40;;;;;;5073369;28;20073;-61
2021/08/24 00:30:29;;;;;;;28.00;13.68;;;39.40;27.50;;;;;;5075673;28;20081;-62
2021/08/24 00:32:55;;;;;;;23.85;13.48;;;39.40;27.60;;;;;;5076206;28;20139;-62
2021/08/24 00:35:22;;;;;;;28.90;13.05;;;39.30;27.50;;;;;;5071653;28;20074;-61
2021/08/24 00:37:49;;;;;;;27.95;13.20;;;39.30;27.20;;;;;;5077518;28;20073;-63
2021/08/24 00:40:17;;;;;;;24.65;13.43;;;39.20;26.90;;;;;;5074984;28;20161;-62
2021/08/24 00:42:45;;;;;;;21.17;13.15;;;39.20;26.90;;;;;;5075572;28;20461;-62
2021/08/24 00:45:14;;;;;;;29.38;14.32;;;39.20;26.60;;;;;;5073271;28;20595;-62
2021/08/24 00:47:43;;;;;;;22.00;13.27;;;39.10;26.70;;;;;;5078962;28;20531;-63
2021/08/24 00:50:18;;;;;;;30.95;14.55;;;39.00;26.50;;;;;;5081412;28;20074;-61
2021/08/24 00:52:47;;;;;;;24.17;13.33;;;38.90;26.10;;;;;;5077801;28;20097;-62
2021/08/24 00:55:15;;;;;;;23.48;13.18;;;38.80;25.50;;;;;;5069962;28;20541;-62
2021/08/24 00:57:49;;;;;;;25.20;14.80;;;38.70;25.20;;;;;;5076524;28;20076;-62
2021/08/24 01:00:17;;;;;;;25.75;14.27;;;38.70;25.10;;;;;;5075462;28;20070;-63
2021/08/24 01:02:44;;;;;;;29.58;13.93;;;38.60;24.20;;;;;;5071970;28;20076;-63
2021/08/24 01:05:12;;;;;;;27.38;14.85;;;38.50;23.50;;;;;;5078571;28;20093;-63
2021/08/24 01:07:49;;;;;;;24.23;14.15;;;38.60;23.80;;;;;;5074879;28;20074;-62
2021/08/24 01:10:41;;;;;;;21.17;14.18;;;38.50;23.80;;;;;;5072842;28;20077;-62
2021/08/24 01:13:31;;;;;;;32.13;14.50;;;38.40;23.40;;;;;;5074944;28;20085;-62
2021/08/24 01:16:37;;;;;;;24.52;14.60;;;38.40;23.20;;;;;;5073723;28;20085;-63
2021/08/24 01:19:25;;;;;;;33.72;14.55;;;38.30;23.10;;;;;;5042811;28;20161;-61
2021/08/24 01:22:13;;;;;;;26.00;13.75;;;38.30;22.70;;;;;;5083098;28;20148;-62
2021/08/24 01:24:53;;;;;;;17.40;13.10;;;38.10;22.00;;;;;;5090307;28;20147;-62
2021/08/24 01:28:02;;;;;;;21.40;12.40;;;38.00;21.70;;;;;;5077212;28;20466;-62
2021/08/24 01:31:05;;;;;;;22.50;13.32;;;38.00;22.10;;;;;;5072584;28;20066;-62
2021/08/24 01:33:50;;;;;;;24.20;13.52;;;37.90;23.00;;;;;;5069643;28;20104;-63
2021/08/24 01:36:34;;;;;;;19.30;12.98;;;37.80;23.80;;;;;;5073235;28;20092;-62
2021/08/24 01:39:39;;;;;;;20.98;13.68;;;37.70;24.40;;;;;;5072394;28;20088;-63
2021/08/24 01:42:28;;;;;;;18.70;13.30;;;37.60;25.00;;;;;;5070984;28;20557;-62
2021/08/24 01:45:02;;;;;;;23.70;13.18;;;37.50;25.80;;;;;;5075110;28;20089;-62
2021/08/24 01:47:49;;;;;;;23.92;14.25;;;37.40;25.30;;;;;;5079041;28;20129;-62
2021/08/24 01:50:28;;;;;;;25.23;14.40;;;37.30;25.50;;;;;;5074301;28;20171;-61
2021/08/24 01:53:33;;;;;;;25.65;13.90;;;37.20;25.40;;;;;;5077606;28;20116;-62
2021/08/24 01:56:20;;;;;;;31.55;14.65;;;37.10;25.20;;;;;;5077266;28;20540;-60
2021/08/24 01:58:59;;;;;;;24.75;14.85;;;37.10;25.20;;;;;;5080153;28;20084;-61
2021/08/24 02:01:41;;;;;;;44.05;14.70;;;37.00;25.70;;;;;;5078173;28;20448;-61
2021/08/24 02:04:15;;;;;;;27.08;14.25;;;36.90;27.00;;;;;;5073908;28;21575;-62
2021/08/24 02:06:45;;;;;;;29.92;14.82;;;36.80;27.70;;;;;;5070640;28;20080;-61
2021/08/24 02:09:29;;;;;;;24.15;14.82;;;36.80;28.00;;;;;;5073604;28;20204;-61
2021/08/24 02:11:58;;;;;;;23.08;14.18;;;36.70;27.80;;;;;;5075766;28;21023;-63
2021/08/24 02:14:24;;;;;;;29.40;15.65;;;36.50;28.60;;;;;;5078711;28;20170;-63
2021/08/24 02:16:58;;;;;;;35.55;15.40;;;36.50;27.80;;;;;;5077786;28;20073;-62
2021/08/24 02:19:30;;;;;;;22.02;15.27;;;36.30;27.80;;;;;;5074725;28;20116;-64
2021/08/24 02:22:29;;;;;;;25.15;15.45;;;36.30;27.90;;;;;;5077633;28;20073;-62
2021/08/24 02:25:06;;;;;;;32.15;15.65;;;36.20;28.10;;;;;;5061687;28;20124;-64
2021/08/24 02:27:38;;;;;;;30.08;14.98;;;36.10;28.50;;;;;;5078603;28;20172;-64
2021/08/24 02:30:06;;;;;;;30.77;15.52;;;36.00;28.50;;;;;;5074833;28;20116;-63
2021/08/24 02:32:36;;;;;;;30.67;16.20;;;36.00;28.70;;;;;;5077020;28;20080;-64
2021/08/24 02:35:37;;;;;;;33.05;15.73;;;35.90;28.20;;;;;;5075590;28;20176;-64
2021/08/24 02:38:37;;;;;;;27.95;16.85;;;35.80;27.90;;;;;;5072017;28;20069;-64
2021/08/24 02:41:23;;;;;;;30.80;17.65;;;35.70;28.00;;;;;;5040450;28;20109;-64
2021/08/24 02:43:58;;;;;;;32.72;18.40;;;35.70;28.70;;;;;;5074720;28;20522;-64
2021/08/24 02:46:29;;;;;;;36.67;19.52;;;35.50;29.80;;;;;;5084432;28;20094;-64
2021/08/24 02:49:05;;;;;;;31.77;19.23;;;35.50;30.60;;;;;;5094412;28;20079;-64
2021/08/24 02:51:35;;;;;;;31.88;19.33;;;35.40;31.20;;;;;;5080758;28;20080;-66
2021/08/24 02:54:16;;;;;;;32.53;18.30;;;35.30;32.00;;;;;;5080588;28;20106;-64
2021/08/24 02:56:43;;;;;;;48.20;19.95;;;35.30;32.60;;;;;;5079253;28;20073;-64
2021/08/24 02:59:10;;;;;;;38.92;19.35;;;35.20;33.30;;;;;;5077028;28;20103;-64
2021/08/24 03:01:36;;;;;;;30.88;18.98;;;35.00;34.70;;;;;;5076365;28;20077;-64
2021/08/24 03:04:05;;;;;;;29.95;19.25;;;35.00;35.30;;;;;;5081063;28;20075;-64
2021/08/24 03:06:33;;;;;;;31.88;18.60;;;34.90;36.00;;;;;;5074356;28;20100;-65
2021/08/24 03:09:01;;;;;;;35.72;19.10;;;34.90;36.60;;;;;;5075759;28;20219;-64
2021/08/24 03:11:33;;;;;;;31.35;18.30;;;34.80;37.10;;;;;;5072961;28;20072;-64
2021/08/24 03:14:27;;;;;;;24.85;17.02;;;34.70;37.70;;;;;;5077752;28;20098;-64
2021/08/24 03:17:00;;;;;;;31.00;17.15;;;34.60;37.90;;;;;;5068705;28;20083;-64
2021/08/24 03:19:32;;;;;;;29.15;16.80;;;34.60;37.70;;;;;;5077004;28;20112;-64
2021/08/24 03:22:03;;;;;;;33.10;17.98;;;34.50;37.30;;;;;;5072889;28;20080;-64
2021/08/24 03:24:32;;;;;;;25.75;17.52;;;34.50;37.90;;;;;;5078312;28;20606;-66
2021/08/24 03:26:59;;;;;;;39.70;17.17;;;34.40;38.40;;;;;;5078125;28;20084;-65
2021/08/24 03:29:28;;;;;;;30.20;17.90;;;34.20;38.20;;;;;;5084594;28;20081;-65
2021/08/24 03:31:57;;;;;;;32.05;18.13;;;34.20;38.30;;;;;;5072539;28;20079;-63
2021/08/24 03:34:25;;;;;;;37.50;17.83;;;34.20;39.10;;;;;;5077719;28;20097;-63
2021/08/24 03:36:52;;;;;;;37.65;18.55;;;34.10;40.00;;;;;;5073183;28;20077;-63
2021/08/24 03:39:18;;;;;;;37.50;18.45;;;34.00;41.00;;;;;;5077044;28;20137;-62
2021/08/24 03:41:45;;;;;;;31.23;18.10;;;33.50;53.30;;;;;;5079881;28;20077;-62
2021/08/24 03:44:11;;;;;;;31.80;18.70;;;33.80;41.70;;;;;;5080272;28;20073;-63
2021/08/24 03:46:38;;;;;;;36.03;18.23;;;33.80;48.40;;;;;;5077216;28;20076;-62
2021/08/24 03:49:04;;;;;;;36.55;20.42;;;33.60;42.40;;;;;;5075510;28;20114;-62
2021/08/24 03:51:31;;;;;;;42.63;20.98;;;33.70;42.90;;;;;;5076777;28;20163;-63
2021/08/24 03:53:58;;;;;;;38.97;19.90;;;33.60;43.70;;;;;;5077832;28;20150;-61
2021/08/24 03:56:24;;;;;;;41.08;19.60;;;33.50;84.40;;;;;;5079967;28;20084;-63
2021/08/24 03:58:51;;;;;;;39.67;17.95;;;33.40;46.50;;;;;;5079828;28;20072;-62
2021/08/24 04:01:18;;;;;;;41.40;18.95;;;33.30;47.80;;;;;;5076811;28;20075;-63
2021/08/24 04:03:45;;;;;;;32.92;18.45;;;33.30;48.50;;;;;;5076254;28;20172;-63
2021/08/24 04:06:12;;;;;;;37.72;18.25;;;33.20;48.90;;;;;;5076010;28;20077;-62
2021/08/24 04:08:39;;;;;;;35.97;18.00;;;33.20;49.00;;;;;;5077744;28;20437;-61
2021/08/24 04:11:07;;;;;;;35.95;17.90;;;33.10;49.10;;;;;;5076519;28;20164;-61
2021/08/24 04:13:34;;;;;;;28.00;17.85;;;33.10;49.00;;;;;;5077677;28;20592;-62
2021/08/24 04:16:09;;;;;;;29.35;18.38;;;33.00;49.00;;;;;;5079052;28;20108;-61
2021/08/24 04:18:36;;;;;;;35.83;17.08;;;32.90;49.20;;;;;;5073812;28;21512;-62
2021/08/24 04:21:07;;;;;;;38.50;18.23;;;32.90;49.00;;;;;;5075518;28;20515;-63
2021/08/24 04:23:34;;;;;;;30.10;17.08;;;32.80;58.80;;;;;;5080581;28;20494;-63
2021/08/24 04:26:01;;;;;;;34.50;17.63;;;32.80;48.80;;;;;;5078309;28;20069;-63
2021/08/24 04:28:28;;;;;;;28.85;16.77;;;32.80;49.00;;;;;;5079252;28;20072;-62
2021/08/24 04:30:55;;;;;;;39.05;18.00;;;32.80;48.90;;;;;;5078284;28;20072;-62
2021/08/24 04:33:22;;;;;;;32.42;17.67;;;32.80;49.10;;;;;;5071142;28;20707;-62
2021/08/24 04:35:53;;;;;;;32.13;16.15;;;32.70;49.50;;;;;;5075572;28;20069;-63
2021/08/24 04:38:20;;;;;;;28.58;16.42;;;32.60;50.30;;;;;;5080518;28;20156;-62
2021/08/24 04:40:48;;;;;;;26.70;15.43;;;32.50;50.90;;;;;;5079692;28;20084;-62
2021/08/24 04:43:15;;;;;;;26.50;14.00;;;32.40;52.00;;;;;;5076624;28;20087;-61
2021/08/24 04:45:42;;;;;;;32.78;15.30;;;32.40;52.40;;;;;;5077387;28;20088;-61
2021/08/24 04:48:08;;;;;;;25.67;13.75;;;32.30;52.80;;;;;;5076902;28;20180;-61
2021/08/24 04:50:36;;;;;;;38.45;14.38;;;32.30;53.30;;;;;;5077502;28;20077;-60
2021/08/24 04:53:04;;;;;;;30.63;14.40;;;32.30;53.60;;;;;;5075412;28;20125;-61
2021/08/24 04:55:31;;;;;;;25.65;14.32;;;32.20;54.00;;;;;;5078964;28;20086;-63
2021/08/24 04:57:58;;;;;;;30.33;15.68;;;32.10;54.20;;;;;;5076111;28;20107;-62
2021/08/24 05:00:25;;;;;;;29.35;14.75;;;32.10;54.40;;;;;;5074759;28;20085;-62
2021/08/24 05:02:52;;;;;;;28.50;16.50;;;32.10;54.80;;;;;;5074493;28;20511;-62
2021/08/24 05:05:19;;;;;;;34.33;15.73;;;32.00;55.40;;;;;;5078426;28;20076;-59
2021/08/24 05:07:46;;;;;;;27.90;15.40;;;31.90;55.90;;;;;;5076848;28;20076;-57
2021/08/24 05:10:12;;;;;;;28.58;17.10;;;31.90;56.30;;;;;;5076567;28;20088;-60
2021/08/24 05:12:39;;;;;;;29.73;17.55;;;31.80;56.60;;;;;;5072090;28;20433;-60
2021/08/24 05:15:07;;;;;;;34.10;17.25;;;31.80;56.90;;;;;;5070544;28;20597;-59
2021/08/24 05:17:35;;;;;;;30.73;16.35;;;31.80;57.20;;;;;;5071994;28;20047;-60
2021/08/24 05:20:03;;;;;;;32.10;15.57;;;31.70;57.00;;;;;;5072919;28;20036;-60
2021/08/24 05:22:36;;;;;;;29.48;15.75;;;31.60;57.50;;;;;;5074325;28;20147;-61
2021/08/24 05:25:03;;;;;;;38.42;16.05;;;31.60;58.10;;;;;;5077683;28;20073;-60
2021/08/24 05:27:33;;;;;;;37.83;14.60;;;31.70;58.40;;;;;;5074299;28;20072;-59
2021/08/24 05:30:05;;;;;;;20.80;12.88;;;31.60;58.80;;;;;;5068586;28;20101;-62
2021/08/24 05:32:32;;;;;;;24.10;13.10;;;31.50;59.20;;;;;;5074946;28;20069;-62
2021/08/24 05:34:59;;;;;;;20.67;13.15;;;31.50;59.70;;;;;;5077244;28;20122;-63
2021/08/24 05:37:26;;;;;;;24.27;12.63;;;31.50;59.80;;;;;;5078417;28;20089;-61
2021/08/24 05:39:53;;;;;;;26.60;12.90;;;31.40;60.20;;;;;;5072930;28;20073;-62
2021/08/24 05:42:20;;;;;;;23.13;12.40;;;31.50;60.40;;;;;;5053863;28;20081;-61
2021/08/24 05:44:47;;;;;;;24.33;12.52;;;31.40;60.80;;;;;;5074648;28;20072;-59
2021/08/24 05:47:14;;;;;;;25.42;12.95;;;31.40;61.20;;;;;;5073879;28;20159;-62
2021/08/24 05:49:41;;;;;;;28.67;12.75;;;31.40;61.90;;;;;;5074749;28;20084;-61
2021/08/24 05:52:11;;;;;;;25.00;12.63;;;31.40;62.50;;;;;;5074057;28;20529;-61
2021/08/24 05:54:38;;;;;;;27.90;11.82;;;31.40;62.70;;;;;;5077291;28;20146;-61
2021/08/24 05:57:05;;;;;;;27.55;12.68;;;31.40;62.90;;;;;;5074617;28;20120;-63
2021/08/24 05:59:35;;;;;;;27.02;12.15;;;31.30;63.30;;;;;;5077669;28;20064;-61
2021/08/24 06:02:02;;;;;;;27.45;12.45;;;31.20;63.70;;;;;;5073842;28;20076;-61
2021/08/24 06:04:29;;;;;;;24.67;12.85;;;31.20;64.10;;;;;;5075208;28;20104;-59
2021/08/24 06:06:56;;;;;;;29.90;13.10;;;31.20;65.00;;;;;;5077370;28;20117;-61
2021/08/24 06:09:22;;;;;;;25.88;12.50;;;31.00;66.10;;;;;;5076449;28;20154;-61
2021/08/24 06:11:50;;;;;;;27.10;13.85;;;30.90;67.00;;;;;;5078467;28;20076;-61
2021/08/24 06:14:22;;;;;;;27.50;12.77;;;31.00;67.50;;;;;;5071315;28;20189;-61
2021/08/24 06:16:55;;;;;;;24.02;12.68;;;31.00;67.80;;;;;;5076606;28;20180;-62
2021/08/24 06:19:22;;;;;;;24.67;13.07;;;31.00;68.40;;;;;;5073007;28;20133;-62
2021/08/24 06:21:48;;;;;;;21.95;11.98;;;30.90;68.90;;;;;;5074988;28;20073;-60
2021/08/24 06:24:15;;;;;;;30.02;12.90;;;30.80;69.70;;;;;;5072609;28;20173;-60
2021/08/24 06:26:42;;;;;;;27.95;13.13;;;30.70;70.20;;;;;;5076518;28;20088;-62
2021/08/24 06:29:10;;;;;;;26.90;11.93;;;30.50;71.10;;;;;;5076790;28;20073;-61
2021/08/24 06:31:41;;;;;;;24.23;12.32;;;30.50;72.10;;;;;;5077500;28;20476;-60
2021/08/24 06:34:11;;;;;;;30.23;12.15;;;30.50;72.70;;;;;;5075562;28;20100;-61
2021/08/24 06:36:39;;;;;;;26.63;13.95;;;30.50;72.70;;;;;;5071499;28;20122;-58
2021/08/24 06:39:06;;;;;;;22.13;12.45;;;30.50;73.40;;;;;;5075171;28;20076;-60
2021/08/24 06:41:34;;;;;;;26.17;13.90;;;30.40;74.70;;;;;;5074815;28;20080;-61
2021/08/24 06:44:00;;;;;;;29.80;13.80;;;30.40;75.20;;;;;;5080731;28;20171;-60
2021/08/24 06:46:27;;;;;;;30.67;14.50;;;30.30;76.20;;;;;;5073647;28;20434;-61
2021/08/24 06:48:54;;;;;;;27.45;14.45;;;30.40;76.40;;;;;;5075890;28;20073;-61
2021/08/24 06:51:20;;;;;;;27.60;14.05;;;30.40;76.80;;;;;;5077758;28;20128;-61
2021/08/24 06:53:47;;;;;;;28.17;13.80;;;30.40;77.00;;;;;;5077484;28;20580;-61
2021/08/24 06:56:13;;;;;;;24.75;14.07;;;30.40;77.50;;;;;;5077405;28;20159;-61
2021/08/24 06:58:42;;;;;;;36.72;14.73;;;30.20;78.10;;;;;;5078877;28;20100;-59
2021/08/24 07:01:16;;;;;;;29.98;15.38;;;30.30;78.60;;;;;;5075708;28;20109;-61
2021/08/24 07:03:43;;;;;;;30.30;15.63;;;30.20;79.20;;;;;;5073063;28;20080;-60
2021/08/24 07:06:11;;;;;;;32.47;15.43;;;30.20;79.40;;;;;;5071763;28;20065;-59
2021/08/24 07:08:38;;;;;;;33.75;15.85;;;30.20;79.60;;;;;;5075320;28;20073;-61
2021/08/24 07:11:05;;;;;;;29.58;14.85;;;30.20;80.10;;;;;;5072183;28;20418;-59
2021/08/24 07:13:33;;;;;;;27.77;15.88;;;30.20;80.50;;;;;;5076126;28;20862;-59
2021/08/24 07:16:01;;;;;;;27.23;14.52;;;30.10;80.60;;;;;;5077024;28;20084;-59
2021/08/24 07:18:28;;;;;;;28.75;14.73;;;30.00;81.80;;;;;;5072230;28;20168;-60
2021/08/24 07:20:55;;;;;;;25.63;14.20;;;30.00;82.20;;;;;;5075901;28;20105;-62
2021/08/24 07:23:22;;;;;;;23.77;13.10;;;30.00;82.50;;;;;;5073088;28;20534;-62
2021/08/24 07:25:49;;;;;;;29.50;14.07;;;30.00;82.70;;;;;;5076091;28;20571;-63
2021/08/24 07:28:16;;;;;;;32.13;14.43;;;30.10;82.70;;;;;;5074544;28;20172;-60
2021/08/24 07:30:48;;;;;;;29.90;16.63;;;30.00;83.80;;;;;;5075920;28;20442;-61
2021/08/24 07:33:16;;;;;;;35.22;17.92;;;29.90;84.40;;;;;;5076501;28;20146;-60
2021/08/24 07:35:46;;;;;;;34.05;18.08;;;29.90;85.10;;;;;;5077759;28;20081;-60
2021/08/24 07:38:14;;;;;;;34.08;17.42;;;29.80;85.50;;;;;;5075097;28;20457;-62
2021/08/24 07:40:41;;;;;;;29.45;16.15;;;29.80;86.10;;;;;;5071534;28;20077;-62
2021/08/24 07:43:07;;;;;;;31.25;16.23;;;29.90;87.00;;;;;;5077196;28;20069;-61
2021/08/24 07:45:34;;;;;;;30.50;15.90;;;29.80;86.40;;;;;;5071218;28;20084;-61
2021/08/24 07:48:00;;;;;;;26.40;14.77;;;29.90;86.60;;;;;;5074736;28;20072;-61
2021/08/24 07:50:27;;;;;;;30.17;14.48;;;29.80;86.80;;;;;;5077465;28;20106;-60
2021/08/24 07:52:53;;;;;;;31.48;14.55;;;29.80;87.20;;;;;;5077098;28;20486;-61
2021/08/24 07:55:21;;;;;;;29.27;15.40;;;29.80;87.40;;;;;;5074066;28;20088;-61
2021/08/24 07:57:48;;;;;;;32.40;15.23;;;29.70;87.60;;;;;;5076855;28;20073;-61
2021/08/24 08:00:15;;;;;;;26.92;14.30;;;29.70;87.80;;;;;;5074033;28;20076;-61
2021/08/24 08:02:41;;;;;;;29.52;14.63;;;29.70;87.90;;;;;;5075581;28;20449;-62
2021/08/24 08:05:08;;;;;;;28.35;13.73;;;29.60;88.20;;;;;;5072176;28;20073;-61
2021/08/24 08:07:35;;;;;;;33.28;13.23;;;29.60;89.10;;;;;;5076504;28;20555;-61
2021/08/24 08:10:01;;;;;;;27.10;13.52;;;29.70;88.10;;;;;;5072057;28;20481;-63
2021/08/24 08:12:28;;;;;;;27.92;13.50;;;29.70;88.70;;;;;;5074843;28;20169;-60
2021/08/24 08:14:55;;;;;;;25.67;12.85;;;29.70;88.50;;;;;;5071910;28;20173;-60
2021/08/24 08:17:21;;;;;;;23.75;12.52;;;29.80;88.30;;;;;;5072631;28;20078;-61
2021/08/24 08:19:48;;;;;;;26.48;13.85;;;29.80;99.60;;;;;;5074252;28;20190;-52
2021/08/24 08:22:15;;;;;;;22.85;11.55;;;29.80;89.00;;;;;;5075804;28;20119;-56
2021/08/24 08:24:41;;;;;;;18.40;11.93;;;30.00;88.20;;;;;;5077196;28;20129;-50
2021/08/24 08:27:08;;;;;;;26.50;12.43;;;30.00;87.30;;;;;;5075398;28;20073;-51
2021/08/24 08:29:35;;;;;;;17.92;10.38;;;30.10;87.90;;;;;;5074084;28;20077;-53
2021/08/24 08:32:08;;;;;;;23.55;11.48;;;30.30;86.90;;;;;;5078178;28;20076;-53
2021/08/24 08:34:34;;;;;;;25.35;11.82;;;30.40;85.50;;;;;;5073348;28;20112;-52
2021/08/24 08:37:01;;;;;;;24.90;11.73;;;30.60;85.00;;;;;;5071355;28;20076;-51
2021/08/24 08:39:28;;;;;;;22.02;11.25;;;30.60;84.40;;;;;;5075841;28;20563;-55
2021/08/24 08:42:26;;;;;;;25.50;10.93;;;30.70;83.60;;;;;;5073000;28;20418;-55
2021/08/24 08:44:58;;;;;;;18.60;10.75;;;30.50;83.40;;;;;;5071579;28;20073;-51
2021/08/24 08:47:31;;;;;;;15.23;10.10;;;30.50;84.40;;;;;;5076338;28;20085;-53
2021/08/24 08:50:12;;;;;;;23.90;11.50;;;30.40;84.70;;;;;;5071000;28;20151;-53
2021/08/24 08:53:01;;;;;;;23.25;10.90;;;30.30;84.50;;;;;;5071322;28;20477;-54
2021/08/24 08:55:35;;;;;;;22.73;11.68;;;30.40;84.10;;;;;;5072426;28;20173;-54
2021/08/24 08:58:32;;;;;;;22.23;11.05;;;30.40;84.10;;;;;;5077927;28;20109;-53
2021/08/24 09:01:22;;;;;;;19.25;10.65;;;30.20;83.70;;;;;;5075256;28;20069;-50
2021/08/24 09:04:04;;;;;;;18.10;11.48;;;30.00;84.50;;;;;;5070544;28;20097;-50
2021/08/24 09:06:32;;;;;;;24.73;11.50;;;29.90;85.30;;;;;;5075493;28;20526;-49
2021/08/24 09:09:01;;;;;;;28.13;13.00;;;29.80;85.60;;;;;;5076059;28;20085;-55
2021/08/24 09:11:36;;;;;;;26.10;13.55;;;29.70;85.50;;;;;;5077659;28;20078;-55
2021/08/24 09:14:27;;;;;;;19.88;12.52;;;30.60;92.70;;;;;;5075582;28;20576;-53
2021/08/24 09:17:07;;;;;;;29.80;13.13;;;29.70;85.10;;;;;;5069484;28;20077;-51
2021/08/24 09:19:53;;;;;;;21.02;12.40;;;29.50;85.50;;;;;;5074288;28;20115;-55
2021/08/24 09:22:20;;;;;;;22.50;12.13;;;29.40;85.00;;;;;;5076756;28;20068;-52
2021/08/24 09:24:48;;;;;;;27.98;14.00;;;29.60;83.80;;;;;;5073520;28;20198;-55
2021/08/24 09:27:44;;;;;;;25.15;12.00;;;29.60;84.40;;;;;;5071422;28;20147;-51
2021/08/24 09:30:12;;;;;;;24.25;13.27;;;29.60;99.90;;;;;;5090839;28;20069;-51
2021/08/24 09:32:39;;;;;;;29.23;13.07;;;29.40;83.50;;;;;;5074154;28;20434;-52
2021/08/24 09:35:12;;;;;;;27.42;14.32;;;29.40;83.10;;;;;;5073295;28;20223;-50
2021/08/24 09:37:39;;;;;;;28.30;13.43;;;29.40;82.30;;;;;;5087184;28;20080;-53
2021/08/24 09:40:09;;;;;;;23.77;13.18;;;29.40;82.40;;;;;;5071099;28;20598;-53
2021/08/24 09:42:47;;;;;;;21.30;12.75;;;29.40;82.20;;;;;;5073392;28;20077;-51
2021/08/24 09:45:19;;;;;;;30.40;13.40;;;29.40;82.40;;;;;;5072497;28;20087;-51
2021/08/24 09:48:02;;;;;;;26.02;13.55;;;29.30;81.90;;;;;;5072875;28;20081;-51
2021/08/24 09:50:32;;;;;;;25.23;12.77;;;29.30;81.20;;;;;;5072394;28;20081;-50
2021/08/24 09:52:59;;;;;;;22.55;12.95;;;29.30;80.80;;;;;;5075011;28;20083;-50
2021/08/24 09:55:29;;;;;;;26.73;13.52;;;29.30;80.10;;;;;;5076318;28;20088;-55
2021/08/24 09:58:07;;;;;;;23.60;12.00;;;29.20;80.00;;;;;;5070041;28;20614;-51
2021/08/24 10:04:08;;;;;;;29.50;12.93;;;29.20;99.90;;;;;;5067881;28;20438;-54
2021/08/24 10:06:40;;;;;;;25.42;13.48;;;29.10;80.10;;;;;;5071906;28;20130;-51
2021/08/24 10:09:18;;;;;;;25.52;13.23;;;29.10;79.00;;;;;;5071797;28;20532;-53
2021/08/24 10:11:45;;;;;;;25.65;13.35;;;28.90;79.10;;;;;;5070338;28;20077;-49
2021/08/24 10:14:19;;;;;;;25.52;12.68;;;28.80;79.00;;;;;;5071179;28;20100;-54
2021/08/24 10:16:48;;;;;;;32.53;13.65;;;28.90;77.90;;;;;;5072332;28;20163;-53
2021/08/24 10:19:36;;;;;;;25.27;13.95;;;28.80;77.90;;;;;;5071493;28;20197;-53
2021/08/24 10:22:27;;;;;;;26.23;13.75;;;28.80;77.20;;;;;;5073467;28;21234;-53
2021/08/24 10:25:07;;;;;;;25.63;13.18;;;28.80;78.00;;;;;;5066525;28;20162;-53
2021/08/24 10:28:07;;;;;;;28.35;14.57;;;28.80;77.50;;;;;;5071545;28;20111;-54
2021/08/24 10:30:49;;;;;;;26.35;14.30;;;28.70;77.50;;;;;;5018275;28;20084;-52
2021/08/24 10:33:24;;;;;;;30.52;14.32;;;28.50;77.90;;;;;;5074731;28;20115;-52
2021/08/24 10:36:03;;;;;;;30.23;14.73;;;28.60;78.00;;;;;;5070545;28;20068;-54
2021/08/24 10:38:58;;;;;;;32.05;14.65;;;28.60;77.10;;;;;;5073090;28;20529;-52
2021/08/24 10:41:36;;;;;;;28.75;13.98;;;28.60;77.40;;;;;;5052625;28;20215;-51
2021/08/24 10:44:15;;;;;;;28.85;14.98;;;28.50;77.60;;;;;;5067859;28;20115;-53
2021/08/24 10:47:03;;;;;;;26.98;15.73;;;28.30;76.60;;;;;;5071860;28;20085;-53
2021/08/24 10:49:30;;;;;;;35.38;18.05;;;28.20;75.60;;;;;;5068849;28;20095;-50
2021/08/24 10:52:01;;;;;;;34.03;16.13;;;28.10;73.20;;;;;;5072044;28;20076;-53
2021/08/24 10:54:49;;;;;;;34.85;16.73;;;28.00;72.70;;;;;;5073412;28;20097;-52
2021/08/24 10:57:37;;;;;;;31.25;16.63;;;28.10;73.60;;;;;;5070879;28;20084;-52
2021/08/24 11:00:23;;;;;;;36.00;16.90;;;28.00;70.80;;;;;;5073227;28;20073;-50
2021/08/24 11:03:08;;;;;;;29.10;17.13;;;28.10;70.50;;;;;;5074607;28;20773;-50
2021/08/24 11:05:55;;;;;;;33.30;17.45;;;28.20;70.90;;;;;;5077192;28;20076;-52
2021/08/24 11:08:59;;;;;;;32.92;17.45;;;28.20;69.50;;;;;;5079140;28;20073;-50
2021/08/24 11:12:01;;;;;;;39.80;18.25;;;28.20;68.10;;;;;;5074732;28;20123;-55
2021/08/24 11:14:38;;;;;;;35.30;17.73;;;28.10;66.90;;;;;;5076290;28;21672;-53
2021/08/24 11:17:10;;;;;;;39.05;17.98;;;28.10;65.60;;;;;;5074058;28;20127;-52
2021/08/24 11:19:49;;;;;;;39.10;18.20;;;28.10;64.60;;;;;;5076974;28;20116;-55
2021/08/24 11:22:32;;;;;;;43.63;18.27;;;28.00;65.50;;;;;;5074676;28;20123;-55
2021/08/24 11:25:30;;;;;;;35.03;17.85;;;28.00;64.80;;;;;;5076687;28;20108;-55
2021/08/24 11:28:18;;;;;;;34.70;20.23;;;28.10;64.90;;;;;;5075721;28;20077;-52
2021/08/24 11:31:07;;;;;;;40.65;19.08;;;27.90;64.60;;;;;;5075829;28;20080;-52
2021/08/24 11:33:39;;;;;;;35.60;19.73;;;27.80;64.70;;;;;;5067960;28;20105;-51
2021/08/24 11:36:21;;;;;;;36.92;19.73;;;27.70;64.60;;;;;;5079028;28;20077;-52
2021/08/24 11:39:05;;;;;;;34.70;19.17;;;27.70;64.90;;;;;;5078951;28;20072;-51
2021/08/24 11:41:33;;;;;;;38.42;19.75;;;27.70;63.90;;;;;;5083245;28;20084;-53
2021/08/24 11:44:09;;;;;;;42.97;21.25;;;27.80;63.60;;;;;;5075422;28;20028;-51
2021/08/24 11:46:43;;;;;;;42.08;21.65;;;27.80;63.00;;;;;;5077930;28;20076;-56
2021/08/24 11:49:46;;;;;;;38.90;20.05;;;27.90;61.90;;;;;;5075217;28;20073;-50
2021/08/24 11:52:31;;;;;;;36.30;20.38;;;27.80;62.50;;;;;;5076955;28;20113;-50
2021/08/24 11:55:18;;;;;;;38.00;19.88;;;27.60;64.10;;;;;;5077624;28;20093;-54
2021/08/24 11:57:54;;;;;;;43.92;21.10;;;27.50;63.90;;;;;;5060668;28;21560;-51
2021/08/24 12:00:21;;;;;;;38.85;20.48;;;27.60;63.40;;;;;;5073917;28;20080;-56
2021/08/24 12:02:50;;;;;;;41.63;19.13;;;27.60;64.30;;;;;;5078876;28;20122;-57
2021/08/24 12:05:48;;;;;;;42.65;20.40;;;27.60;64.00;;;;;;5076264;28;20554;-56
2021/08/24 12:08:27;;;;;;;40.17;20.58;;;27.60;64.10;;;;;;5077794;28;20107;-55
2021/08/24 12:11:05;;;;;;;38.00;19.58;;;27.60;63.90;;;;;;5076270;28;20068;-53
2021/08/24 12:13:41;;;;;;;42.10;20.40;;;27.50;65.30;;;;;;5076745;28;21795;-53
2021/08/24 12:16:09;;;;;;;38.58;20.35;;;27.40;65.00;;;;;;5076970;28;20278;-53
2021/08/24 12:18:37;;;;;;;39.35;19.98;;;27.40;66.20;;;;;;5077667;28;20085;-54
2021/08/24 12:21:45;;;;;;;44.30;19.50;;;27.40;64.50;;;;;;5076951;28;20097;-54
2021/08/24 12:24:24;;;;;;;39.08;20.63;;;27.50;64.30;;;;;;5074317;28;20069;-52
2021/08/24 12:27:12;;;;;;;47.30;22.30;;;27.50;64.00;;;;;;5076190;28;20080;-54
2021/08/24 12:29:39;;;;;;;38.70;20.08;;;27.50;63.50;;;;;;5074890;28;20069;-54
2021/08/24 12:32:12;;;;;;;48.40;20.58;;;27.60;63.60;;;;;;5074076;28;20088;-54
2021/08/24 12:34:42;;;;;;;30.75;18.55;;;27.60;63.20;;;;;;5077330;28;20103;-54
2021/08/24 12:37:18;;;;;;;35.17;18.73;;;27.50;63.40;;;;;;5074823;28;20113;-51
2021/08/24 12:39:50;;;;;;;36.08;18.85;;;27.50;64.30;;;;;;5073875;28;20080;-54
2021/08/24 12:42:22;;;;;;;39.63;19.10;;;27.50;64.40;;;;;;5081578;28;20183;-52
2021/08/24 12:44:58;;;;;;;39.22;20.25;;;27.40;63.90;;;;;;5091395;28;20092;-51
2021/08/24 12:47:30;;;;;;;37.35;19.65;;;27.40;65.00;;;;;;5076586;28;20077;-53
2021/08/24 12:49:58;;;;;;;39.47;18.63;;;27.20;64.60;;;;;;5074525;28;20076;-55
2021/08/24 12:52:37;;;;;;;47.33;20.13;;;27.20;64.70;;;;;;5073153;28;20075;-53
2021/08/24 12:55:25;;;;;;;38.25;20.70;;;27.10;64.70;;;;;;5073401;28;20096;-54
2021/08/24 12:58:05;;;;;;;38.15;19.80;;;27.10;63.40;;;;;;5074160;28;20078;-54
2021/08/24 13:00:37;;;;;;;35.00;19.02;;;27.10;62.20;;;;;;5075903;28;20073;-50
2021/08/24 13:03:26;;;;;;;41.72;19.10;;;27.10;60.40;;;;;;5072869;28;20077;-51